sensor_id;sensor_type;location;lat;lon;timestamp;P1;durP1;ratioP1;P2;durP2;ratioP2
27025;SDS011;14565;48.626;8.978;2023-04-27T00:01:28;14.45;;;7.82;;
27025;SDS011;14565;48.626;8.978;2023-04-27T00:03:54;16.50;;;6.32;;
27025;SDS011;14565;48.626;8.978;2023-04-27T00:06:21;10.75;;;6.07;;
27025;SDS011;14565;48.626;8.978;2023-04-27T00:08:46;9.80;;;4.32;;
27025;SDS011;14565;48.626;8.978;2023-04-27T00:11:12;5.35;;;3.47;;
27025;SDS011;14565;48.626;8.978;2023-04-27T00:13:37;5.72;;;3.33;;
27025;SDS011;14565;48.626;8.978;2023-04-27T00:16:03;9.13;;;2.80;;
27025;SDS011;14565;48.626;8.978;2023-04-27T00:18:29;5.63;;;3.25;;
27025;SDS011;14565;48.626;8.978;2023-04-27T00:20:56;5.55;;;3.15;;
27025;SDS011;14565;48.626;8.978;2023-04-27T00:23:22;5.85;;;2.75;;
27025;SDS011;14565;48.626;8.978;2023-04-27T00:25:50;5.60;;;2.55;;
27025;SDS011;14565;48.626;8.978;2023-04-27T00:30:41;6.60;;;2.50;;
27025;SDS011;14565;48.626;8.978;2023-04-27T00:33:07;4.60;;;2.63;;
27025;SDS011;14565;48.626;8.978;2023-04-27T00:35:33;7.25;;;3.45;;
27025;SDS011;14565;48.626;8.978;2023-04-27T00:37:58;5.13;;;2.60;;
27025;SDS011;14565;48.626;8.978;2023-04-27T00:40:24;5.82;;;2.72;;
27025;SDS011;14565;48.626;8.978;2023-04-27T00:42:50;7.60;;;2.55;;
27025;SDS011;14565;48.626;8.978;2023-04-27T00:45:16;6.60;;;2.50;;
27025;SDS011;14565;48.626;8.978;2023-04-27T00:47:41;6.80;;;2.78;;
27025;SDS011;14565;48.626;8.978;2023-04-27T00:50:08;4.70;;;2.47;;
27025;SDS011;14565;48.626;8.978;2023-04-27T00:52:35;4.43;;;2.55;;
27025;SDS011;14565;48.626;8.978;2023-04-27T00:55:02;4.20;;;2.47;;
27025;SDS011;14565;48.626;8.978;2023-04-27T00:57:29;7.28;;;2.55;;
27025;SDS011;14565;48.626;8.978;2023-04-27T00:59:55;3.65;;;2.53;;
27025;SDS011;14565;48.626;8.978;2023-04-27T01:02:21;5.88;;;2.45;;
27025;SDS011;14565;48.626;8.978;2023-04-27T01:04:47;3.85;;;2.33;;
27025;SDS011;14565;48.626;8.978;2023-04-27T01:07:14;3.60;;;2.58;;
27025;SDS011;14565;48.626;8.978;2023-04-27T01:09:41;4.40;;;2.00;;
27025;SDS011;14565;48.626;8.978;2023-04-27T01:12:06;4.20;;;2.53;;
27025;SDS011;14565;48.626;8.978;2023-04-27T01:14:32;4.35;;;2.30;;
27025;SDS011;14565;48.626;8.978;2023-04-27T01:17:00;3.90;;;2.38;;
27025;SDS011;14565;48.626;8.978;2023-04-27T01:19:26;5.57;;;2.17;;
27025;SDS011;14565;48.626;8.978;2023-04-27T01:21:52;7.63;;;2.75;;
27025;SDS011;14565;48.626;8.978;2023-04-27T01:24:18;3.40;;;2.45;;
27025;SDS011;14565;48.626;8.978;2023-04-27T01:26:44;3.88;;;2.63;;
27025;SDS011;14565;48.626;8.978;2023-04-27T01:29:09;4.60;;;2.38;;
27025;SDS011;14565;48.626;8.978;2023-04-27T01:31:35;4.25;;;2.80;;
27025;SDS011;14565;48.626;8.978;2023-04-27T01:34:02;6.75;;;2.67;;
27025;SDS011;14565;48.626;8.978;2023-04-27T01:36:28;5.38;;;2.83;;
27025;SDS011;14565;48.626;8.978;2023-04-27T01:38:54;7.15;;;2.63;;
27025;SDS011;14565;48.626;8.978;2023-04-27T01:41:19;6.22;;;2.67;;
27025;SDS011;14565;48.626;8.978;2023-04-27T01:43:45;3.85;;;2.28;;
27025;SDS011;14565;48.626;8.978;2023-04-27T01:46:11;4.05;;;2.53;;
27025;SDS011;14565;48.626;8.978;2023-04-27T01:48:38;5.95;;;2.40;;
27025;SDS011;14565;48.626;8.978;2023-04-27T01:51:05;6.82;;;2.45;;
27025;SDS011;14565;48.626;8.978;2023-04-27T01:53:31;5.43;;;2.25;;
27025;SDS011;14565;48.626;8.978;2023-04-27T01:55:57;5.65;;;2.75;;
27025;SDS011;14565;48.626;8.978;2023-04-27T01:58:27;8.63;;;2.28;;
27025;SDS011;14565;48.626;8.978;2023-04-27T02:00:53;6.75;;;2.67;;
27025;SDS011;14565;48.626;8.978;2023-04-27T02:03:18;9.50;;;2.50;;
27025;SDS011;14565;48.626;8.978;2023-04-27T02:05:44;9.02;;;2.53;;
27025;SDS011;14565;48.626;8.978;2023-04-27T02:08:11;5.03;;;2.25;;
27025;SDS011;14565;48.626;8.978;2023-04-27T02:10:36;7.65;;;2.70;;
27025;SDS011;14565;48.626;8.978;2023-04-27T02:13:02;6.03;;;2.83;;
27025;SDS011;14565;48.626;8.978;2023-04-27T02:15:28;4.55;;;2.17;;
27025;SDS011;14565;48.626;8.978;2023-04-27T02:17:53;7.63;;;2.67;;
27025;SDS011;14565;48.626;8.978;2023-04-27T02:20:19;5.22;;;2.53;;
27025;SDS011;14565;48.626;8.978;2023-04-27T02:22:45;4.50;;;2.40;;
27025;SDS011;14565;48.626;8.978;2023-04-27T02:25:11;4.45;;;2.38;;
27025;SDS011;14565;48.626;8.978;2023-04-27T03:17:25;4.80;;;2.38;;
27025;SDS011;14565;48.626;8.978;2023-04-27T03:19:52;5.30;;;2.38;;
27025;SDS011;14565;48.626;8.978;2023-04-27T03:22:18;3.38;;;2.30;;
27025;SDS011;14565;48.626;8.978;2023-04-27T03:24:43;4.78;;;2.58;;
27025;SDS011;14565;48.626;8.978;2023-04-27T03:27:09;3.45;;;1.95;;
27025;SDS011;14565;48.626;8.978;2023-04-27T03:29:35;5.70;;;2.60;;
27025;SDS011;14565;48.626;8.978;2023-04-27T03:32:01;4.72;;;2.40;;
27025;SDS011;14565;48.626;8.978;2023-04-27T03:34:28;3.78;;;2.22;;
27025;SDS011;14565;48.626;8.978;2023-04-27T03:36:53;6.55;;;2.53;;
27025;SDS011;14565;48.626;8.978;2023-04-27T03:39:20;5.55;;;2.58;;
27025;SDS011;14565;48.626;8.978;2023-04-27T03:41:45;4.93;;;2.50;;
27025;SDS011;14565;48.626;8.978;2023-04-27T03:44:11;6.25;;;2.70;;
27025;SDS011;14565;48.626;8.978;2023-04-27T03:46:37;5.20;;;2.83;;
27025;SDS011;14565;48.626;8.978;2023-04-27T03:49:02;4.10;;;2.40;;
27025;SDS011;14565;48.626;8.978;2023-04-27T03:51:29;6.72;;;2.47;;
27025;SDS011;14565;48.626;8.978;2023-04-27T03:53:57;4.00;;;2.53;;
27025;SDS011;14565;48.626;8.978;2023-04-27T03:56:22;6.90;;;2.53;;
27025;SDS011;14565;48.626;8.978;2023-04-27T03:58:48;6.00;;;2.28;;
27025;SDS011;14565;48.626;8.978;2023-04-27T04:01:14;4.15;;;2.42;;
27025;SDS011;14565;48.626;8.978;2023-04-27T04:03:40;11.60;;;3.05;;
27025;SDS011;14565;48.626;8.978;2023-04-27T04:06:06;5.65;;;2.72;;
27025;SDS011;14565;48.626;8.978;2023-04-27T04:08:32;7.80;;;2.72;;
27025;SDS011;14565;48.626;8.978;2023-04-27T04:10:58;6.63;;;2.40;;
27025;SDS011;14565;48.626;8.978;2023-04-27T04:13:24;5.15;;;2.42;;
27025;SDS011;14565;48.626;8.978;2023-04-27T04:15:59;8.35;;;2.53;;
27025;SDS011;14565;48.626;8.978;2023-04-27T04:18:27;6.80;;;2.67;;
27025;SDS011;14565;48.626;8.978;2023-04-27T04:20:53;4.07;;;2.50;;
27025;SDS011;14565;48.626;8.978;2023-04-27T04:23:18;5.22;;;2.55;;
27025;SDS011;14565;48.626;8.978;2023-04-27T04:25:44;4.95;;;2.67;;
27025;SDS011;14565;48.626;8.978;2023-04-27T04:28:12;7.43;;;2.80;;
27025;SDS011;14565;48.626;8.978;2023-04-27T04:30:38;6.18;;;2.30;;
27025;SDS011;14565;48.626;8.978;2023-04-27T04:33:04;6.72;;;2.92;;
27025;SDS011;14565;48.626;8.978;2023-04-27T04:35:30;4.82;;;2.17;;
27025;SDS011;14565;48.626;8.978;2023-04-27T04:37:58;5.40;;;2.55;;
27025;SDS011;14565;48.626;8.978;2023-04-27T04:40:24;7.07;;;2.40;;
27025;SDS011;14565;48.626;8.978;2023-04-27T04:42:50;4.43;;;2.13;;
27025;SDS011;14565;48.626;8.978;2023-04-27T04:45:16;9.23;;;2.38;;
27025;SDS011;14565;48.626;8.978;2023-04-27T04:47:42;6.57;;;3.22;;
27025;SDS011;14565;48.626;8.978;2023-04-27T04:50:08;10.00;;;4.30;;
27025;SDS011;14565;48.626;8.978;2023-04-27T04:52:34;5.10;;;2.75;;
27025;SDS011;14565;48.626;8.978;2023-04-27T04:55:01;13.80;;;6.55;;
27025;SDS011;14565;48.626;8.978;2023-04-27T04:57:28;13.75;;;6.10;;
27025;SDS011;14565;48.626;8.978;2023-04-27T04:59:54;10.95;;;5.80;;
27025;SDS011;14565;48.626;8.978;2023-04-27T05:02:20;9.02;;;4.15;;
27025;SDS011;14565;48.626;8.978;2023-04-27T05:04:46;24.10;;;7.38;;
27025;SDS011;14565;48.626;8.978;2023-04-27T05:07:11;23.00;;;8.38;;
27025;SDS011;14565;48.626;8.978;2023-04-27T05:09:38;13.68;;;6.00;;
27025;SDS011;14565;48.626;8.978;2023-04-27T05:12:04;17.30;;;7.88;;
27025;SDS011;14565;48.626;8.978;2023-04-27T05:14:32;16.73;;;5.70;;
27025;SDS011;14565;48.626;8.978;2023-04-27T05:17:00;11.98;;;4.60;;
27025;SDS011;14565;48.626;8.978;2023-04-27T05:19:32;10.27;;;3.45;;
27025;SDS011;14565;48.626;8.978;2023-04-27T05:21:59;5.80;;;2.33;;
27025;SDS011;14565;48.626;8.978;2023-04-27T05:24:27;6.75;;;3.30;;
27025;SDS011;14565;48.626;8.978;2023-04-27T05:29:48;4.97;;;2.80;;
27025;SDS011;14565;48.626;8.978;2023-04-27T05:32:14;7.45;;;2.67;;
27025;SDS011;14565;48.626;8.978;2023-04-27T05:34:40;4.78;;;2.38;;
27025;SDS011;14565;48.626;8.978;2023-04-27T05:37:07;8.45;;;2.70;;
27025;SDS011;14565;48.626;8.978;2023-04-27T05:39:33;6.63;;;2.22;;
27025;SDS011;14565;48.626;8.978;2023-04-27T05:41:59;4.65;;;2.28;;
27025;SDS011;14565;48.626;8.978;2023-04-27T05:44:29;6.78;;;2.58;;
27025;SDS011;14565;48.626;8.978;2023-04-27T05:46:55;6.22;;;2.15;;
27025;SDS011;14565;48.626;8.978;2023-04-27T05:49:21;6.35;;;2.50;;
27025;SDS011;14565;48.626;8.978;2023-04-27T05:51:50;5.20;;;2.15;;
27025;SDS011;14565;48.626;8.978;2023-04-27T05:54:17;5.10;;;2.50;;
27025;SDS011;14565;48.626;8.978;2023-04-27T05:56:43;5.30;;;2.15;;
27025;SDS011;14565;48.626;8.978;2023-04-27T05:59:08;7.35;;;2.25;;
27025;SDS011;14565;48.626;8.978;2023-04-27T06:01:34;6.30;;;2.35;;
27025;SDS011;14565;48.626;8.978;2023-04-27T06:04:00;5.53;;;2.10;;
27025;SDS011;14565;48.626;8.978;2023-04-27T06:06:26;11.68;;;2.95;;
27025;SDS011;14565;48.626;8.978;2023-04-27T06:08:55;6.43;;;3.20;;
27025;SDS011;14565;48.626;8.978;2023-04-27T06:11:21;8.32;;;3.38;;
27025;SDS011;14565;48.626;8.978;2023-04-27T06:13:47;8.05;;;4.07;;
27025;SDS011;14565;48.626;8.978;2023-04-27T06:16:13;5.88;;;3.95;;
27025;SDS011;14565;48.626;8.978;2023-04-27T06:18:39;9.45;;;4.55;;
27025;SDS011;14565;48.626;8.978;2023-04-27T06:21:05;5.63;;;3.30;;
27025;SDS011;14565;48.626;8.978;2023-04-27T06:23:31;8.80;;;4.03;;
27025;SDS011;14565;48.626;8.978;2023-04-27T06:25:57;9.23;;;3.85;;
27025;SDS011;14565;48.626;8.978;2023-04-27T06:28:23;11.48;;;3.80;;
27025;SDS011;14565;48.626;8.978;2023-04-27T06:30:49;17.13;;;4.93;;
27025;SDS011;14565;48.626;8.978;2023-04-27T06:33:15;8.95;;;3.20;;
27025;SDS011;14565;48.626;8.978;2023-04-27T06:35:41;7.68;;;3.05;;
27025;SDS011;14565;48.626;8.978;2023-04-27T06:38:06;6.57;;;2.97;;
27025;SDS011;14565;48.626;8.978;2023-04-27T06:40:32;5.85;;;3.17;;
27025;SDS011;14565;48.626;8.978;2023-04-27T06:42:58;6.50;;;3.08;;
27025;SDS011;14565;48.626;8.978;2023-04-27T06:45:26;7.20;;;3.10;;
27025;SDS011;14565;48.626;8.978;2023-04-27T06:47:52;5.70;;;3.22;;
27025;SDS011;14565;48.626;8.978;2023-04-27T06:50:18;9.00;;;3.22;;
27025;SDS011;14565;48.626;8.978;2023-04-27T06:52:43;8.52;;;3.85;;
27025;SDS011;14565;48.626;8.978;2023-04-27T06:55:09;8.30;;;3.50;;
27025;SDS011;14565;48.626;8.978;2023-04-27T06:57:34;8.13;;;2.92;;
27025;SDS011;14565;48.626;8.978;2023-04-27T07:00:00;4.68;;;2.95;;
27025;SDS011;14565;48.626;8.978;2023-04-27T07:02:27;5.78;;;3.35;;
27025;SDS011;14565;48.626;8.978;2023-04-27T07:04:53;5.57;;;2.55;;
27025;SDS011;14565;48.626;8.978;2023-04-27T07:07:20;5.15;;;2.80;;
27025;SDS011;14565;48.626;8.978;2023-04-27T07:09:46;6.13;;;2.65;;
27025;SDS011;14565;48.626;8.978;2023-04-27T07:12:11;9.35;;;3.20;;
27025;SDS011;14565;48.626;8.978;2023-04-27T07:14:37;9.85;;;3.13;;
27025;SDS011;14565;48.626;8.978;2023-04-27T07:17:02;7.30;;;3.30;;
27025;SDS011;14565;48.626;8.978;2023-04-27T07:19:28;6.80;;;3.08;;
27025;SDS011;14565;48.626;8.978;2023-04-27T07:21:54;7.38;;;3.10;;
27025;SDS011;14565;48.626;8.978;2023-04-27T07:24:22;4.38;;;2.85;;
27025;SDS011;14565;48.626;8.978;2023-04-27T07:26:48;10.38;;;3.08;;
27025;SDS011;14565;48.626;8.978;2023-04-27T07:29:13;8.18;;;3.90;;
27025;SDS011;14565;48.626;8.978;2023-04-27T07:31:41;7.72;;;3.78;;
27025;SDS011;14565;48.626;8.978;2023-04-27T07:34:07;8.13;;;3.80;;
27025;SDS011;14565;48.626;8.978;2023-04-27T07:36:32;8.18;;;3.85;;
27025;SDS011;14565;48.626;8.978;2023-04-27T07:38:58;9.13;;;3.80;;
27025;SDS011;14565;48.626;8.978;2023-04-27T07:41:24;5.72;;;3.35;;
27025;SDS011;14565;48.626;8.978;2023-04-27T07:43:50;9.00;;;3.55;;
27025;SDS011;14565;48.626;8.978;2023-04-27T07:46:16;4.85;;;3.05;;
27025;SDS011;14565;48.626;8.978;2023-04-27T07:48:42;6.65;;;3.20;;
27025;SDS011;14565;48.626;8.978;2023-04-27T07:51:08;8.50;;;3.28;;
27025;SDS011;14565;48.626;8.978;2023-04-27T07:53:34;9.70;;;3.47;;
27025;SDS011;14565;48.626;8.978;2023-04-27T07:56:00;5.53;;;3.25;;
27025;SDS011;14565;48.626;8.978;2023-04-27T07:58:26;8.60;;;3.38;;
27025;SDS011;14565;48.626;8.978;2023-04-27T08:00:52;7.85;;;3.15;;
27025;SDS011;14565;48.626;8.978;2023-04-27T08:03:18;6.45;;;3.30;;
27025;SDS011;14565;48.626;8.978;2023-04-27T08:05:43;9.50;;;3.70;;
27025;SDS011;14565;48.626;8.978;2023-04-27T08:08:09;7.78;;;3.72;;
27025;SDS011;14565;48.626;8.978;2023-04-27T08:10:35;5.43;;;2.70;;
27025;SDS011;14565;48.626;8.978;2023-04-27T08:13:02;5.40;;;3.10;;
27025;SDS011;14565;48.626;8.978;2023-04-27T08:15:27;6.10;;;2.20;;
27025;SDS011;14565;48.626;8.978;2023-04-27T08:17:53;7.07;;;2.83;;
27025;SDS011;14565;48.626;8.978;2023-04-27T08:20:19;6.82;;;3.25;;
27025;SDS011;14565;48.626;8.978;2023-04-27T08:22:45;6.95;;;2.70;;
27025;SDS011;14565;48.626;8.978;2023-04-27T08:25:10;5.68;;;2.83;;
27025;SDS011;14565;48.626;8.978;2023-04-27T08:27:37;5.72;;;3.00;;
27025;SDS011;14565;48.626;8.978;2023-04-27T08:30:04;5.90;;;2.35;;
27025;SDS011;14565;48.626;8.978;2023-04-27T08:32:30;3.97;;;2.60;;
27025;SDS011;14565;48.626;8.978;2023-04-27T08:34:55;6.75;;;2.40;;
27025;SDS011;14565;48.626;8.978;2023-04-27T08:37:21;4.43;;;2.00;;
27025;SDS011;14565;48.626;8.978;2023-04-27T08:39:47;6.35;;;2.25;;
27025;SDS011;14565;48.626;8.978;2023-04-27T08:42:13;3.97;;;2.42;;
27025;SDS011;14565;48.626;8.978;2023-04-27T08:44:39;6.78;;;2.00;;
27025;SDS011;14565;48.626;8.978;2023-04-27T08:47:06;5.15;;;2.15;;
27025;SDS011;14565;48.626;8.978;2023-04-27T08:49:33;3.80;;;2.10;;
27025;SDS011;14565;48.626;8.978;2023-04-27T08:52:00;7.55;;;2.28;;
27025;SDS011;14565;48.626;8.978;2023-04-27T08:54:26;4.55;;;1.80;;
27025;SDS011;14565;48.626;8.978;2023-04-27T08:56:52;5.55;;;1.95;;
27025;SDS011;14565;48.626;8.978;2023-04-27T08:59:17;4.70;;;2.20;;
27025;SDS011;14565;48.626;8.978;2023-04-27T09:01:46;3.92;;;1.80;;
27025;SDS011;14565;48.626;8.978;2023-04-27T09:04:13;5.25;;;2.10;;
27025;SDS011;14565;48.626;8.978;2023-04-27T09:06:39;7.07;;;2.50;;
27025;SDS011;14565;48.626;8.978;2023-04-27T09:09:05;6.43;;;2.10;;
27025;SDS011;14565;48.626;8.978;2023-04-27T09:11:32;4.13;;;1.77;;
27025;SDS011;14565;48.626;8.978;2023-04-27T09:14:13;5.50;;;2.20;;
27025;SDS011;14565;48.626;8.978;2023-04-27T09:16:41;4.35;;;1.90;;
27025;SDS011;14565;48.626;8.978;2023-04-27T09:19:07;4.22;;;2.47;;
27025;SDS011;14565;48.626;8.978;2023-04-27T09:21:32;4.40;;;1.90;;
27025;SDS011;14565;48.626;8.978;2023-04-27T09:24:08;3.85;;;2.03;;
27025;SDS011;14565;48.626;8.978;2023-04-27T09:26:37;3.80;;;2.17;;
27025;SDS011;14565;48.626;8.978;2023-04-27T09:29:04;5.20;;;2.13;;
27025;SDS011;14565;48.626;8.978;2023-04-27T09:31:33;6.97;;;2.53;;
27025;SDS011;14565;48.626;8.978;2023-04-27T09:33:59;5.28;;;2.20;;
27025;SDS011;14565;48.626;8.978;2023-04-27T09:36:26;10.02;;;2.47;;
27025;SDS011;14565;48.626;8.978;2023-04-27T09:38:52;7.30;;;2.45;;
27025;SDS011;14565;48.626;8.978;2023-04-27T09:41:18;6.00;;;2.85;;
27025;SDS011;14565;48.626;8.978;2023-04-27T09:43:44;7.38;;;3.13;;
27025;SDS011;14565;48.626;8.978;2023-04-27T09:46:11;5.47;;;2.30;;
27025;SDS011;14565;48.626;8.978;2023-04-27T09:48:38;6.57;;;2.75;;
27025;SDS011;14565;48.626;8.978;2023-04-27T09:51:04;4.57;;;2.22;;
27025;SDS011;14565;48.626;8.978;2023-04-27T09:53:35;3.95;;;2.10;;
27025;SDS011;14565;48.626;8.978;2023-04-27T10:07:03;5.90;;;3.05;;
27025;SDS011;14565;48.626;8.978;2023-04-27T10:09:35;5.63;;;2.85;;
27025;SDS011;14565;48.626;8.978;2023-04-27T10:12:18;7.85;;;2.92;;
27025;SDS011;14565;48.626;8.978;2023-04-27T10:14:48;4.90;;;2.55;;
27025;SDS011;14565;48.626;8.978;2023-04-27T10:17:15;5.07;;;2.40;;
27025;SDS011;14565;48.626;8.978;2023-04-27T10:19:51;4.35;;;2.67;;
27025;SDS011;14565;48.626;8.978;2023-04-27T10:22:37;6.85;;;2.95;;
27025;SDS011;14565;48.626;8.978;2023-04-27T10:27:49;4.78;;;2.50;;
27025;SDS011;14565;48.626;8.978;2023-04-27T10:30:20;6.53;;;2.83;;
27025;SDS011;14565;48.626;8.978;2023-04-27T10:32:51;4.70;;;2.53;;
27025;SDS011;14565;48.626;8.978;2023-04-27T10:35:19;6.07;;;3.00;;
27025;SDS011;14565;48.626;8.978;2023-04-27T10:37:46;6.83;;;3.50;;
27025;SDS011;14565;48.626;8.978;2023-04-27T10:40:12;6.50;;;2.80;;
27025;SDS011;14565;48.626;8.978;2023-04-27T10:42:47;5.05;;;2.50;;
27025;SDS011;14565;48.626;8.978;2023-04-27T10:45:13;5.10;;;2.53;;
27025;SDS011;14565;48.626;8.978;2023-04-27T10:47:56;6.00;;;2.50;;
27025;SDS011;14565;48.626;8.978;2023-04-27T10:50:26;4.32;;;2.65;;
27025;SDS011;14565;48.626;8.978;2023-04-27T10:52:52;4.18;;;2.60;;
27025;SDS011;14565;48.626;8.978;2023-04-27T10:55:18;9.75;;;3.10;;
27025;SDS011;14565;48.626;8.978;2023-04-27T10:57:49;6.88;;;2.70;;
27025;SDS011;14565;48.626;8.978;2023-04-27T11:02:51;4.05;;;2.28;;
27025;SDS011;14565;48.626;8.978;2023-04-27T11:05:21;5.53;;;2.60;;
27025;SDS011;14565;48.626;8.978;2023-04-27T11:07:49;6.85;;;2.20;;
27025;SDS011;14565;48.626;8.978;2023-04-27T11:10:16;5.45;;;2.60;;
27025;SDS011;14565;48.626;8.978;2023-04-27T11:12:43;4.90;;;2.33;;
27025;SDS011;14565;48.626;8.978;2023-04-27T11:15:09;5.38;;;2.70;;
27025;SDS011;14565;48.626;8.978;2023-04-27T11:17:36;4.57;;;2.75;;
27025;SDS011;14565;48.626;8.978;2023-04-27T11:20:02;2.65;;;2.15;;
27025;SDS011;14565;48.626;8.978;2023-04-27T11:22:42;5.93;;;2.50;;
27025;SDS011;14565;48.626;8.978;2023-04-27T11:25:09;3.83;;;2.40;;
27025;SDS011;14565;48.626;8.978;2023-04-27T11:27:36;3.72;;;2.30;;
27025;SDS011;14565;48.626;8.978;2023-04-27T11:30:03;5.67;;;2.30;;
27025;SDS011;14565;48.626;8.978;2023-04-27T11:32:29;6.55;;;2.53;;
27025;SDS011;14565;48.626;8.978;2023-04-27T11:34:55;4.47;;;1.98;;
27025;SDS011;14565;48.626;8.978;2023-04-27T11:37:25;3.38;;;1.90;;
27025;SDS011;14565;48.626;8.978;2023-04-27T11:39:52;4.25;;;2.17;;
27025;SDS011;14565;48.626;8.978;2023-04-27T11:42:25;7.95;;;2.28;;
27025;SDS011;14565;48.626;8.978;2023-04-27T11:44:55;3.72;;;2.30;;
27025;SDS011;14565;48.626;8.978;2023-04-27T11:47:26;4.25;;;2.25;;
27025;SDS011;14565;48.626;8.978;2023-04-27T11:49:56;4.60;;;2.30;;
27025;SDS011;14565;48.626;8.978;2023-04-27T11:52:27;4.53;;;2.30;;
27025;SDS011;14565;48.626;8.978;2023-04-27T11:54:54;3.92;;;2.22;;
27025;SDS011;14565;48.626;8.978;2023-04-27T11:57:23;4.35;;;2.50;;
27025;SDS011;14565;48.626;8.978;2023-04-27T12:02:17;6.88;;;2.80;;
27025;SDS011;14565;48.626;8.978;2023-04-27T12:04:42;6.78;;;2.67;;
27025;SDS011;14565;48.626;8.978;2023-04-27T12:07:08;4.40;;;2.50;;
27025;SDS011;14565;48.626;8.978;2023-04-27T12:09:36;5.25;;;2.40;;
27025;SDS011;14565;48.626;8.978;2023-04-27T12:12:01;4.30;;;2.60;;
27025;SDS011;14565;48.626;8.978;2023-04-27T12:14:27;6.45;;;2.20;;
27025;SDS011;14565;48.626;8.978;2023-04-27T12:16:52;7.25;;;2.70;;
27025;SDS011;14565;48.626;8.978;2023-04-27T12:19:18;5.20;;;3.10;;
27025;SDS011;14565;48.626;8.978;2023-04-27T12:21:44;6.05;;;2.90;;
27025;SDS011;14565;48.626;8.978;2023-04-27T12:24:10;5.93;;;2.53;;
27025;SDS011;14565;48.626;8.978;2023-04-27T12:26:36;5.68;;;2.45;;
27025;SDS011;14565;48.626;8.978;2023-04-27T12:29:02;6.03;;;2.13;;
27025;SDS011;14565;48.626;8.978;2023-04-27T12:31:28;7.70;;;2.33;;
27025;SDS011;14565;48.626;8.978;2023-04-27T12:33:55;5.45;;;2.33;;
27025;SDS011;14565;48.626;8.978;2023-04-27T12:36:20;2.47;;;2.00;;
27025;SDS011;14565;48.626;8.978;2023-04-27T12:38:46;4.85;;;2.42;;
27025;SDS011;14565;48.626;8.978;2023-04-27T12:41:12;5.20;;;2.35;;
27025;SDS011;14565;48.626;8.978;2023-04-27T12:43:37;4.00;;;2.20;;
27025;SDS011;14565;48.626;8.978;2023-04-27T12:46:05;5.37;;;2.33;;
27025;SDS011;14565;48.626;8.978;2023-04-27T12:48:30;11.27;;;4.00;;
27025;SDS011;14565;48.626;8.978;2023-04-27T12:50:57;3.58;;;2.00;;
27025;SDS011;14565;48.626;8.978;2023-04-27T12:53:23;3.75;;;2.10;;
27025;SDS011;14565;48.626;8.978;2023-04-27T12:55:49;4.32;;;1.90;;
27025;SDS011;14565;48.626;8.978;2023-04-27T12:58:14;8.75;;;3.45;;
27025;SDS011;14565;48.626;8.978;2023-04-27T13:00:40;6.45;;;2.10;;
27025;SDS011;14565;48.626;8.978;2023-04-27T13:03:06;4.90;;;1.98;;
27025;SDS011;14565;48.626;8.978;2023-04-27T13:05:32;3.00;;;2.05;;
27025;SDS011;14565;48.626;8.978;2023-04-27T13:07:58;3.88;;;1.77;;
27025;SDS011;14565;48.626;8.978;2023-04-27T13:10:23;5.43;;;2.15;;
27025;SDS011;14565;48.626;8.978;2023-04-27T13:12:49;3.97;;;1.88;;
27025;SDS011;14565;48.626;8.978;2023-04-27T13:15:15;4.03;;;1.90;;
27025;SDS011;14565;48.626;8.978;2023-04-27T13:17:40;4.55;;;1.70;;
27025;SDS011;14565;48.626;8.978;2023-04-27T13:20:06;7.82;;;2.88;;
27025;SDS011;14565;48.626;8.978;2023-04-27T13:22:32;4.18;;;1.50;;
27025;SDS011;14565;48.626;8.978;2023-04-27T13:24:58;2.67;;;1.50;;
27025;SDS011;14565;48.626;8.978;2023-04-27T13:27:24;3.88;;;1.77;;
27025;SDS011;14565;48.626;8.978;2023-04-27T13:29:52;2.78;;;1.50;;
27025;SDS011;14565;48.626;8.978;2023-04-27T13:32:20;3.13;;;1.40;;
27025;SDS011;14565;48.626;8.978;2023-04-27T13:37:41;3.88;;;1.60;;
27025;SDS011;14565;48.626;8.978;2023-04-27T13:40:08;3.60;;;1.42;;
27025;SDS011;14565;48.626;8.978;2023-04-27T13:42:35;1.95;;;1.60;;
27025;SDS011;14565;48.626;8.978;2023-04-27T13:45:01;2.33;;;1.60;;
27025;SDS011;14565;48.626;8.978;2023-04-27T13:47:28;3.00;;;2.27;;
27025;SDS011;14565;48.626;8.978;2023-04-27T13:50:01;1.90;;;1.50;;
27025;SDS011;14565;48.626;8.978;2023-04-27T13:52:31;3.60;;;1.60;;
27025;SDS011;14565;48.626;8.978;2023-04-27T13:54:56;1.73;;;1.35;;
27025;SDS011;14565;48.626;8.978;2023-04-27T13:57:22;3.58;;;1.27;;
27025;SDS011;14565;48.626;8.978;2023-04-27T13:59:48;3.17;;;1.95;;
27025;SDS011;14565;48.626;8.978;2023-04-27T14:02:13;3.70;;;1.50;;
27025;SDS011;14565;48.626;8.978;2023-04-27T14:04:39;3.05;;;1.38;;
27025;SDS011;14565;48.626;8.978;2023-04-27T14:07:05;3.88;;;1.45;;
27025;SDS011;14565;48.626;8.978;2023-04-27T14:09:31;4.57;;;1.73;;
27025;SDS011;14565;48.626;8.978;2023-04-27T14:11:56;3.40;;;1.70;;
27025;SDS011;14565;48.626;8.978;2023-04-27T14:14:23;1.92;;;1.40;;
27025;SDS011;14565;48.626;8.978;2023-04-27T14:16:48;3.28;;;1.25;;
27025;SDS011;14565;48.626;8.978;2023-04-27T14:19:17;3.42;;;1.55;;
27025;SDS011;14565;48.626;8.978;2023-04-27T14:21:53;3.05;;;1.75;;
27025;SDS011;14565;48.626;8.978;2023-04-27T14:24:21;3.47;;;2.22;;
27025;SDS011;14565;48.626;8.978;2023-04-27T14:26:47;2.35;;;1.42;;
27025;SDS011;14565;48.626;8.978;2023-04-27T14:29:15;3.22;;;1.70;;
27025;SDS011;14565;48.626;8.978;2023-04-27T14:31:41;3.65;;;1.48;;
27025;SDS011;14565;48.626;8.978;2023-04-27T14:34:07;2.15;;;1.40;;
27025;SDS011;14565;48.626;8.978;2023-04-27T14:36:33;1.98;;;1.38;;
27025;SDS011;14565;48.626;8.978;2023-04-27T14:38:59;5.28;;;1.60;;
27025;SDS011;14565;48.626;8.978;2023-04-27T14:41:25;2.95;;;1.33;;
27025;SDS011;14565;48.626;8.978;2023-04-27T14:43:52;2.92;;;1.30;;
27025;SDS011;14565;48.626;8.978;2023-04-27T14:46:18;3.08;;;1.30;;
27025;SDS011;14565;48.626;8.978;2023-04-27T14:48:44;2.00;;;1.30;;
27025;SDS011;14565;48.626;8.978;2023-04-27T14:51:14;2.08;;;1.40;;
27025;SDS011;14565;48.626;8.978;2023-04-27T14:53:40;3.92;;;1.40;;
27025;SDS011;14565;48.626;8.978;2023-04-27T14:56:06;3.53;;;1.60;;
27025;SDS011;14565;48.626;8.978;2023-04-27T14:58:32;2.40;;;1.60;;
27025;SDS011;14565;48.626;8.978;2023-04-27T15:00:58;2.88;;;1.45;;
27025;SDS011;14565;48.626;8.978;2023-04-27T15:03:25;1.95;;;1.17;;
27025;SDS011;14565;48.626;8.978;2023-04-27T15:05:52;3.67;;;1.30;;
27025;SDS011;14565;48.626;8.978;2023-04-27T15:08:18;1.40;;;1.00;;
27025;SDS011;14565;48.626;8.978;2023-04-27T15:10:43;3.47;;;1.40;;
27025;SDS011;14565;48.626;8.978;2023-04-27T15:13:09;4.10;;;1.10;;
27025;SDS011;14565;48.626;8.978;2023-04-27T15:15:35;2.35;;;1.00;;
27025;SDS011;14565;48.626;8.978;2023-04-27T15:18:02;2.72;;;1.25;;
27025;SDS011;14565;48.626;8.978;2023-04-27T15:20:28;1.85;;;0.90;;
27025;SDS011;14565;48.626;8.978;2023-04-27T15:22:53;1.60;;;1.38;;
27025;SDS011;14565;48.626;8.978;2023-04-27T15:25:19;3.97;;;1.30;;
27025;SDS011;14565;48.626;8.978;2023-04-27T15:27:45;6.40;;;1.48;;
27025;SDS011;14565;48.626;8.978;2023-04-27T15:30:12;2.75;;;1.15;;
27025;SDS011;14565;48.626;8.978;2023-04-27T15:32:38;3.05;;;1.17;;
27025;SDS011;14565;48.626;8.978;2023-04-27T15:35:04;3.08;;;1.17;;
27025;SDS011;14565;48.626;8.978;2023-04-27T15:37:34;1.80;;;1.20;;
27025;SDS011;14565;48.626;8.978;2023-04-27T15:40:01;1.77;;;1.20;;
27025;SDS011;14565;48.626;8.978;2023-04-27T15:42:27;2.00;;;1.10;;
27025;SDS011;14565;48.626;8.978;2023-04-27T15:44:53;2.10;;;1.10;;
27025;SDS011;14565;48.626;8.978;2023-04-27T15:47:19;2.78;;;1.48;;
27025;SDS011;14565;48.626;8.978;2023-04-27T15:49:45;3.72;;;1.20;;
27025;SDS011;14565;48.626;8.978;2023-04-27T15:52:11;3.03;;;1.30;;
27025;SDS011;14565;48.626;8.978;2023-04-27T15:54:37;4.43;;;1.33;;
27025;SDS011;14565;48.626;8.978;2023-04-27T15:57:02;1.63;;;1.23;;
27025;SDS011;14565;48.626;8.978;2023-04-27T15:59:28;1.40;;;1.08;;
27025;SDS011;14565;48.626;8.978;2023-04-27T16:01:55;3.20;;;1.30;;